sensor_id;sensor_type;location;lat;lon;timestamp;P1;durP1;ratioP1;P2;durP2;ratioP2
57889;SDS011;43707;50.184;18.966;2022-08-30T00:00:03;7.90;;;5.10;;
57889;SDS011;43707;50.184;18.966;2022-08-30T00:02:54;8.60;;;5.80;;
57889;SDS011;43707;50.184;18.966;2022-08-30T00:05:19;9.70;;;5.50;;
57889;SDS011;43707;50.184;18.966;2022-08-30T00:07:45;16.70;;;5.30;;
57889;SDS011;43707;50.184;18.966;2022-08-30T00:10:10;8.70;;;5.40;;
57889;SDS011;43707;50.184;18.966;2022-08-30T00:12:37;10.20;;;5.90;;
57889;SDS011;43707;50.184;18.966;2022-08-30T00:15:04;10.50;;;4.90;;
57889;SDS011;43707;50.184;18.966;2022-08-30T00:17:31;8.40;;;5.00;;
57889;SDS011;43707;50.184;18.966;2022-08-30T00:19:57;6.50;;;4.70;;
57889;SDS011;43707;50.184;18.966;2022-08-30T00:22:22;7.70;;;5.50;;
57889;SDS011;43707;50.184;18.966;2022-08-30T00:24:48;6.60;;;4.30;;
57889;SDS011;43707;50.184;18.966;2022-08-30T00:27:14;9.60;;;5.10;;
57889;SDS011;43707;50.184;18.966;2022-08-30T00:29:40;8.40;;;5.10;;
57889;SDS011;43707;50.184;18.966;2022-08-30T00:32:06;8.60;;;5.60;;
57889;SDS011;43707;50.184;18.966;2022-08-30T00:34:32;6.50;;;5.20;;
57889;SDS011;43707;50.184;18.966;2022-08-30T00:36:58;7.80;;;4.90;;
57889;SDS011;43707;50.184;18.966;2022-08-30T00:39:24;9.90;;;5.30;;
57889;SDS011;43707;50.184;18.966;2022-08-30T00:41:50;10.90;;;4.80;;
57889;SDS011;43707;50.184;18.966;2022-08-30T00:44:16;11.60;;;4.90;;
57889;SDS011;43707;50.184;18.966;2022-08-30T00:46:41;8.30;;;4.70;;
57889;SDS011;43707;50.184;18.966;2022-08-30T00:49:07;7.00;;;4.60;;
57889;SDS011;43707;50.184;18.966;2022-08-30T00:51:35;7.90;;;4.60;;
57889;SDS011;43707;50.184;18.966;2022-08-30T00:54:01;8.60;;;4.90;;
57889;SDS011;43707;50.184;18.966;2022-08-30T00:56:27;8.70;;;5.00;;
57889;SDS011;43707;50.184;18.966;2022-08-30T00:58:54;6.90;;;5.00;;
57889;SDS011;43707;50.184;18.966;2022-08-30T01:01:22;10.80;;;5.70;;
57889;SDS011;43707;50.184;18.966;2022-08-30T01:03:47;6.30;;;4.70;;
57889;SDS011;43707;50.184;18.966;2022-08-30T01:06:13;9.30;;;5.00;;
57889;SDS011;43707;50.184;18.966;2022-08-30T01:08:40;7.50;;;5.20;;
57889;SDS011;43707;50.184;18.966;2022-08-30T01:11:06;10.80;;;4.90;;
57889;SDS011;43707;50.184;18.966;2022-08-30T01:13:33;6.60;;;5.00;;
57889;SDS011;43707;50.184;18.966;2022-08-30T01:15:59;8.20;;;4.70;;
57889;SDS011;43707;50.184;18.966;2022-08-30T01:18:25;6.90;;;4.40;;
57889;SDS011;43707;50.184;18.966;2022-08-30T01:23:41;6.70;;;4.80;;
57889;SDS011;43707;50.184;18.966;2022-08-30T01:26:08;6.80;;;5.20;;
57889;SDS011;43707;50.184;18.966;2022-08-30T01:28:34;6.80;;;4.70;;
57889;SDS011;43707;50.184;18.966;2022-08-30T01:31:00;6.70;;;4.90;;
57889;SDS011;43707;50.184;18.966;2022-08-30T01:33:26;6.50;;;4.30;;
57889;SDS011;43707;50.184;18.966;2022-08-30T01:35:56;5.40;;;4.30;;
57889;SDS011;43707;50.184;18.966;2022-08-30T01:38:26;5.90;;;4.10;;
57889;SDS011;43707;50.184;18.966;2022-08-30T01:40:58;7.60;;;4.40;;
57889;SDS011;43707;50.184;18.966;2022-08-30T01:43:34;5.60;;;3.90;;
57889;SDS011;43707;50.184;18.966;2022-08-30T01:45:59;10.80;;;5.00;;
57889;SDS011;43707;50.184;18.966;2022-08-30T01:48:27;5.80;;;4.70;;
57889;SDS011;43707;50.184;18.966;2022-08-30T01:50:53;5.80;;;4.80;;
57889;SDS011;43707;50.184;18.966;2022-08-30T01:53:19;5.70;;;4.80;;
57889;SDS011;43707;50.184;18.966;2022-08-30T01:55:45;8.20;;;5.00;;
57889;SDS011;43707;50.184;18.966;2022-08-30T01:58:11;8.90;;;5.20;;
57889;SDS011;43707;50.184;18.966;2022-08-30T02:00:37;8.70;;;4.50;;
57889;SDS011;43707;50.184;18.966;2022-08-30T02:03:03;6.20;;;4.30;;
57889;SDS011;43707;50.184;18.966;2022-08-30T02:05:29;10.60;;;4.50;;
57889;SDS011;43707;50.184;18.966;2022-08-30T02:07:55;6.00;;;3.90;;
57889;SDS011;43707;50.184;18.966;2022-08-30T02:10:21;7.60;;;4.30;;
57889;SDS011;43707;50.184;18.966;2022-08-30T02:12:46;9.50;;;4.90;;
57889;SDS011;43707;50.184;18.966;2022-08-30T02:15:12;6.60;;;5.50;;
57889;SDS011;43707;50.184;18.966;2022-08-30T02:17:38;6.70;;;4.90;;
57889;SDS011;43707;50.184;18.966;2022-08-30T02:20:05;5.50;;;4.50;;
57889;SDS011;43707;50.184;18.966;2022-08-30T02:22:31;6.50;;;4.50;;
57889;SDS011;43707;50.184;18.966;2022-08-30T02:24:56;7.10;;;4.70;;
57889;SDS011;43707;50.184;18.966;2022-08-30T02:27:22;5.70;;;4.80;;
57889;SDS011;43707;50.184;18.966;2022-08-30T02:29:47;6.50;;;5.20;;
57889;SDS011;43707;50.184;18.966;2022-08-30T02:32:13;6.60;;;4.90;;
57889;SDS011;43707;50.184;18.966;2022-08-30T02:34:39;7.30;;;5.00;;
57889;SDS011;43707;50.184;18.966;2022-08-30T02:37:04;5.50;;;4.90;;
57889;SDS011;43707;50.184;18.966;2022-08-30T02:39:30;6.60;;;6.00;;
57889;SDS011;43707;50.184;18.966;2022-08-30T02:41:56;9.70;;;5.80;;
57889;SDS011;43707;50.184;18.966;2022-08-30T02:44:21;10.60;;;5.60;;
57889;SDS011;43707;50.184;18.966;2022-08-30T02:46:47;5.80;;;5.20;;
57889;SDS011;43707;50.184;18.966;2022-08-30T02:49:12;11.60;;;5.00;;
57889;SDS011;43707;50.184;18.966;2022-08-30T02:51:38;5.80;;;4.60;;
57889;SDS011;43707;50.184;18.966;2022-08-30T02:54:04;8.10;;;4.60;;
57889;SDS011;43707;50.184;18.966;2022-08-30T02:56:30;7.00;;;5.10;;
57889;SDS011;43707;50.184;18.966;2022-08-30T02:58:56;5.60;;;4.50;;
57889;SDS011;43707;50.184;18.966;2022-08-30T03:01:21;6.00;;;4.60;;
57889;SDS011;43707;50.184;18.966;2022-08-30T03:03:47;7.80;;;5.20;;
57889;SDS011;43707;50.184;18.966;2022-08-30T03:06:12;10.70;;;5.50;;
57889;SDS011;43707;50.184;18.966;2022-08-30T03:08:38;6.90;;;4.80;;
57889;SDS011;43707;50.184;18.966;2022-08-30T03:11:04;8.00;;;5.80;;
57889;SDS011;43707;50.184;18.966;2022-08-30T03:13:30;10.10;;;5.70;;
57889;SDS011;43707;50.184;18.966;2022-08-30T03:15:56;8.60;;;4.80;;
57889;SDS011;43707;50.184;18.966;2022-08-30T03:18:21;5.70;;;5.00;;
57889;SDS011;43707;50.184;18.966;2022-08-30T03:20:47;10.90;;;5.80;;
57889;SDS011;43707;50.184;18.966;2022-08-30T03:23:13;6.70;;;5.20;;
57889;SDS011;43707;50.184;18.966;2022-08-30T03:25:39;9.20;;;6.00;;
57889;SDS011;43707;50.184;18.966;2022-08-30T03:28:05;10.00;;;5.20;;
57889;SDS011;43707;50.184;18.966;2022-08-30T03:30:31;9.10;;;6.10;;
57889;SDS011;43707;50.184;18.966;2022-08-30T03:32:57;10.90;;;6.00;;
57889;SDS011;43707;50.184;18.966;2022-08-30T03:35:23;8.00;;;6.50;;
57889;SDS011;43707;50.184;18.966;2022-08-30T03:37:49;13.50;;;5.40;;
57889;SDS011;43707;50.184;18.966;2022-08-30T03:40:15;10.30;;;6.10;;
57889;SDS011;43707;50.184;18.966;2022-08-30T03:42:43;6.80;;;5.70;;
57889;SDS011;43707;50.184;18.966;2022-08-30T03:45:09;6.40;;;5.30;;
57889;SDS011;43707;50.184;18.966;2022-08-30T03:47:35;7.00;;;4.90;;
57889;SDS011;43707;50.184;18.966;2022-08-30T03:50:00;8.80;;;5.40;;
57889;SDS011;43707;50.184;18.966;2022-08-30T03:52:26;9.40;;;5.40;;
57889;SDS011;43707;50.184;18.966;2022-08-30T03:54:52;7.30;;;5.30;;
57889;SDS011;43707;50.184;18.966;2022-08-30T03:57:17;10.30;;;5.50;;
57889;SDS011;43707;50.184;18.966;2022-08-30T03:59:43;7.20;;;5.70;;
57889;SDS011;43707;50.184;18.966;2022-08-30T04:13:06;7.90;;;4.70;;
57889;SDS011;43707;50.184;18.966;2022-08-30T04:15:31;9.70;;;5.20;;
57889;SDS011;43707;50.184;18.966;2022-08-30T04:17:56;9.70;;;4.30;;
57889;SDS011;43707;50.184;18.966;2022-08-30T04:20:22;6.30;;;4.80;;
57889;SDS011;43707;50.184;18.966;2022-08-30T04:22:47;11.20;;;4.50;;
57889;SDS011;43707;50.184;18.966;2022-08-30T04:25:13;8.20;;;5.20;;
57889;SDS011;43707;50.184;18.966;2022-08-30T04:27:38;6.50;;;4.70;;
57889;SDS011;43707;50.184;18.966;2022-08-30T04:30:04;15.10;;;6.20;;
57889;SDS011;43707;50.184;18.966;2022-08-30T04:32:30;6.80;;;5.60;;
57889;SDS011;43707;50.184;18.966;2022-08-30T04:34:59;12.60;;;5.50;;
57889;SDS011;43707;50.184;18.966;2022-08-30T04:37:24;6.90;;;4.60;;
57889;SDS011;43707;50.184;18.966;2022-08-30T04:39:53;5.10;;;4.60;;
57889;SDS011;43707;50.184;18.966;2022-08-30T04:42:20;7.10;;;5.30;;
57889;SDS011;43707;50.184;18.966;2022-08-30T04:44:46;7.20;;;4.90;;
57889;SDS011;43707;50.184;18.966;2022-08-30T04:47:11;12.50;;;5.50;;
57889;SDS011;43707;50.184;18.966;2022-08-30T04:49:36;7.00;;;5.70;;
57889;SDS011;43707;50.184;18.966;2022-08-30T04:52:02;6.00;;;4.60;;
57889;SDS011;43707;50.184;18.966;2022-08-30T04:54:31;9.80;;;5.80;;
57889;SDS011;43707;50.184;18.966;2022-08-30T04:56:56;10.00;;;5.70;;
57889;SDS011;43707;50.184;18.966;2022-08-30T04:59:22;7.50;;;5.90;;
57889;SDS011;43707;50.184;18.966;2022-08-30T05:01:48;7.90;;;5.50;;
57889;SDS011;43707;50.184;18.966;2022-08-30T05:04:13;9.20;;;5.90;;
57889;SDS011;43707;50.184;18.966;2022-08-30T05:06:39;8.80;;;6.30;;
57889;SDS011;43707;50.184;18.966;2022-08-30T05:09:05;6.70;;;6.00;;
57889;SDS011;43707;50.184;18.966;2022-08-30T05:11:30;11.40;;;6.20;;
57889;SDS011;43707;50.184;18.966;2022-08-30T05:13:55;13.40;;;6.40;;
57889;SDS011;43707;50.184;18.966;2022-08-30T05:16:21;9.40;;;6.00;;
57889;SDS011;43707;50.184;18.966;2022-08-30T05:18:47;8.80;;;6.80;;
57889;SDS011;43707;50.184;18.966;2022-08-30T05:21:15;9.70;;;7.20;;
57889;SDS011;43707;50.184;18.966;2022-08-30T05:23:43;11.70;;;7.60;;
57889;SDS011;43707;50.184;18.966;2022-08-30T05:26:10;9.40;;;7.10;;
57889;SDS011;43707;50.184;18.966;2022-08-30T05:28:40;9.30;;;7.20;;
57889;SDS011;43707;50.184;18.966;2022-08-30T05:33:38;8.60;;;7.20;;
57889;SDS011;43707;50.184;18.966;2022-08-30T05:36:06;13.20;;;8.20;;
57889;SDS011;43707;50.184;18.966;2022-08-30T05:38:33;11.20;;;7.20;;
57889;SDS011;43707;50.184;18.966;2022-08-30T05:40:58;13.10;;;8.10;;
57889;SDS011;43707;50.184;18.966;2022-08-30T05:43:23;9.80;;;7.50;;
57889;SDS011;43707;50.184;18.966;2022-08-30T05:45:56;19.30;;;7.70;;
57889;SDS011;43707;50.184;18.966;2022-08-30T05:48:26;13.00;;;8.60;;
57889;SDS011;43707;50.184;18.966;2022-08-30T05:53:38;12.20;;;9.70;;
57889;SDS011;43707;50.184;18.966;2022-08-30T05:56:05;21.10;;;10.00;;
57889;SDS011;43707;50.184;18.966;2022-08-30T05:58:32;20.30;;;12.30;;
57889;SDS011;43707;50.184;18.966;2022-08-30T06:00:57;17.70;;;11.20;;
57889;SDS011;43707;50.184;18.966;2022-08-30T06:03:23;19.20;;;10.10;;
57889;SDS011;43707;50.184;18.966;2022-08-30T06:05:49;23.50;;;9.70;;
57889;SDS011;43707;50.184;18.966;2022-08-30T06:08:15;33.70;;;10.60;;
57889;SDS011;43707;50.184;18.966;2022-08-30T06:10:40;19.10;;;10.20;;
57889;SDS011;43707;50.184;18.966;2022-08-30T06:13:06;24.70;;;10.40;;
57889;SDS011;43707;50.184;18.966;2022-08-30T06:15:31;24.90;;;10.60;;
57889;SDS011;43707;50.184;18.966;2022-08-30T06:17:57;14.20;;;9.10;;
57889;SDS011;43707;50.184;18.966;2022-08-30T06:20:22;19.60;;;9.20;;
57889;SDS011;43707;50.184;18.966;2022-08-30T06:22:48;21.70;;;10.30;;
57889;SDS011;43707;50.184;18.966;2022-08-30T06:25:13;15.40;;;9.90;;
57889;SDS011;43707;50.184;18.966;2022-08-30T06:27:40;26.00;;;10.70;;
57889;SDS011;43707;50.184;18.966;2022-08-30T06:30:06;17.60;;;11.80;;
57889;SDS011;43707;50.184;18.966;2022-08-30T06:32:35;17.30;;;11.80;;
57889;SDS011;43707;50.184;18.966;2022-08-30T06:35:01;25.00;;;12.90;;
57889;SDS011;43707;50.184;18.966;2022-08-30T06:37:27;22.40;;;12.00;;
57889;SDS011;43707;50.184;18.966;2022-08-30T06:39:52;15.80;;;11.10;;
57889;SDS011;43707;50.184;18.966;2022-08-30T06:42:18;16.20;;;9.90;;
57889;SDS011;43707;50.184;18.966;2022-08-30T06:44:43;18.20;;;11.00;;
57889;SDS011;43707;50.184;18.966;2022-08-30T06:47:09;18.00;;;11.60;;
57889;SDS011;43707;50.184;18.966;2022-08-30T06:49:35;18.40;;;11.60;;
57889;SDS011;43707;50.184;18.966;2022-08-30T06:52:01;16.20;;;10.60;;
57889;SDS011;43707;50.184;18.966;2022-08-30T06:54:27;14.50;;;10.30;;
57889;SDS011;43707;50.184;18.966;2022-08-30T06:56:52;17.30;;;10.40;;
57889;SDS011;43707;50.184;18.966;2022-08-30T06:59:18;11.40;;;9.10;;
57889;SDS011;43707;50.184;18.966;2022-08-30T07:01:43;16.10;;;9.20;;
57889;SDS011;43707;50.184;18.966;2022-08-30T07:04:08;12.40;;;6.50;;
57889;SDS011;43707;50.184;18.966;2022-08-30T07:06:34;9.80;;;7.40;;
57889;SDS011;43707;50.184;18.966;2022-08-30T07:08:59;11.20;;;7.60;;
57889;SDS011;43707;50.184;18.966;2022-08-30T07:11:26;9.90;;;6.50;;
57889;SDS011;43707;50.184;18.966;2022-08-30T07:13:53;14.90;;;7.20;;
57889;SDS011;43707;50.184;18.966;2022-08-30T07:16:18;7.70;;;5.90;;
57889;SDS011;43707;50.184;18.966;2022-08-30T07:18:43;10.30;;;6.40;;
57889;SDS011;43707;50.184;18.966;2022-08-30T07:21:16;7.00;;;5.90;;
57889;SDS011;43707;50.184;18.966;2022-08-30T07:23:43;6.60;;;5.00;;
57889;SDS011;43707;50.184;18.966;2022-08-30T07:26:12;9.30;;;4.90;;
57889;SDS011;43707;50.184;18.966;2022-08-30T07:28:38;8.00;;;5.90;;
57889;SDS011;43707;50.184;18.966;2022-08-30T07:31:05;7.20;;;5.20;;
57889;SDS011;43707;50.184;18.966;2022-08-30T07:33:31;11.20;;;6.00;;
57889;SDS011;43707;50.184;18.966;2022-08-30T07:35:56;8.00;;;5.10;;
57889;SDS011;43707;50.184;18.966;2022-08-30T07:38:23;5.50;;;4.20;;
57889;SDS011;43707;50.184;18.966;2022-08-30T07:40:49;5.70;;;5.00;;
57889;SDS011;43707;50.184;18.966;2022-08-30T07:43:15;9.50;;;5.50;;
57889;SDS011;43707;50.184;18.966;2022-08-30T07:45:40;5.50;;;5.00;;
57889;SDS011;43707;50.184;18.966;2022-08-30T07:48:06;5.90;;;5.20;;
57889;SDS011;43707;50.184;18.966;2022-08-30T07:50:31;5.50;;;4.30;;
57889;SDS011;43707;50.184;18.966;2022-08-30T07:52:58;8.20;;;5.50;;
57889;SDS011;43707;50.184;18.966;2022-08-30T07:55:23;7.00;;;5.90;;
57889;SDS011;43707;50.184;18.966;2022-08-30T07:57:49;9.20;;;6.10;;
57889;SDS011;43707;50.184;18.966;2022-08-30T08:00:14;7.80;;;5.30;;
57889;SDS011;43707;50.184;18.966;2022-08-30T08:02:40;7.40;;;5.40;;
57889;SDS011;43707;50.184;18.966;2022-08-30T08:05:06;11.40;;;6.40;;
57889;SDS011;43707;50.184;18.966;2022-08-30T08:07:33;6.50;;;5.20;;
57889;SDS011;43707;50.184;18.966;2022-08-30T08:09:59;6.00;;;5.10;;
57889;SDS011;43707;50.184;18.966;2022-08-30T08:12:25;8.50;;;4.70;;
57889;SDS011;43707;50.184;18.966;2022-08-30T08:14:51;6.10;;;5.20;;
57889;SDS011;43707;50.184;18.966;2022-08-30T08:17:16;7.30;;;4.70;;
57889;SDS011;43707;50.184;18.966;2022-08-30T08:19:42;8.60;;;5.40;;
57889;SDS011;43707;50.184;18.966;2022-08-30T08:22:07;7.20;;;5.30;;
57889;SDS011;43707;50.184;18.966;2022-08-30T08:24:33;7.60;;;4.70;;
57889;SDS011;43707;50.184;18.966;2022-08-30T08:26:58;5.50;;;4.30;;
57889;SDS011;43707;50.184;18.966;2022-08-30T08:29:24;6.20;;;4.30;;
57889;SDS011;43707;50.184;18.966;2022-08-30T08:31:52;5.20;;;4.70;;
57889;SDS011;43707;50.184;18.966;2022-08-30T08:34:18;4.60;;;3.80;;
57889;SDS011;43707;50.184;18.966;2022-08-30T08:36:47;5.40;;;3.80;;
57889;SDS011;43707;50.184;18.966;2022-08-30T08:39:13;5.10;;;4.60;;
57889;SDS011;43707;50.184;18.966;2022-08-30T08:44:07;8.30;;;5.70;;
57889;SDS011;43707;50.184;18.966;2022-08-30T08:49:37;7.20;;;4.80;;
57889;SDS011;43707;50.184;18.966;2022-08-30T08:52:04;6.60;;;4.70;;
57889;SDS011;43707;50.184;18.966;2022-08-30T08:54:51;6.00;;;3.80;;
57889;SDS011;43707;50.184;18.966;2022-08-30T08:57:20;6.10;;;4.60;;
57889;SDS011;43707;50.184;18.966;2022-08-30T08:59:46;7.50;;;4.60;;
57889;SDS011;43707;50.184;18.966;2022-08-30T09:02:22;9.30;;;4.90;;
57889;SDS011;43707;50.184;18.966;2022-08-30T09:04:52;7.30;;;5.20;;
57889;SDS011;43707;50.184;18.966;2022-08-30T09:07:26;7.30;;;5.30;;
57889;SDS011;43707;50.184;18.966;2022-08-30T09:09:54;8.30;;;4.50;;
57889;SDS011;43707;50.184;18.966;2022-08-30T09:12:21;9.70;;;5.50;;
57889;SDS011;43707;50.184;18.966;2022-08-30T09:14:51;6.30;;;4.80;;
57889;SDS011;43707;50.184;18.966;2022-08-30T09:17:18;9.90;;;4.10;;
57889;SDS011;43707;50.184;18.966;2022-08-30T09:22:15;7.90;;;4.40;;
57889;SDS011;43707;50.184;18.966;2022-08-30T09:24:49;4.70;;;3.90;;
57889;SDS011;43707;50.184;18.966;2022-08-30T09:27:22;5.40;;;4.30;;
57889;SDS011;43707;50.184;18.966;2022-08-30T09:30:01;6.10;;;3.90;;
57889;SDS011;43707;50.184;18.966;2022-08-30T09:32:28;7.10;;;4.20;;
57889;SDS011;43707;50.184;18.966;2022-08-30T09:35:00;4.10;;;3.40;;
57889;SDS011;43707;50.184;18.966;2022-08-30T09:40:07;3.20;;;2.90;;
57889;SDS011;43707;50.184;18.966;2022-08-30T09:42:34;4.70;;;3.40;;
57889;SDS011;43707;50.184;18.966;2022-08-30T09:45:01;4.50;;;3.80;;
57889;SDS011;43707;50.184;18.966;2022-08-30T09:47:41;4.40;;;3.70;;
57889;SDS011;43707;50.184;18.966;2022-08-30T09:52:56;4.10;;;3.40;;
57889;SDS011;43707;50.184;18.966;2022-08-30T09:58:25;3.40;;;3.10;;
57889;SDS011;43707;50.184;18.966;2022-08-30T10:01:21;4.70;;;3.80;;
57889;SDS011;43707;50.184;18.966;2022-08-30T10:06:40;3.60;;;3.10;;
57889;SDS011;43707;50.184;18.966;2022-08-30T10:15:05;7.00;;;3.30;;
57889;SDS011;43707;50.184;18.966;2022-08-30T10:25:34;4.80;;;3.70;;
57889;SDS011;43707;50.184;18.966;2022-08-30T10:28:08;4.20;;;3.80;;
57889;SDS011;43707;50.184;18.966;2022-08-30T10:30:39;3.00;;;2.70;;
57889;SDS011;43707;50.184;18.966;2022-08-30T10:33:20;3.60;;;3.20;;
57889;SDS011;43707;50.184;18.966;2022-08-30T10:35:50;3.70;;;2.80;;
57889;SDS011;43707;50.184;18.966;2022-08-30T10:38:25;4.90;;;3.40;;
57889;SDS011;43707;50.184;18.966;2022-08-30T10:49:29;3.20;;;2.30;;
57889;SDS011;43707;50.184;18.966;2022-08-30T10:52:19;3.40;;;3.10;;
57889;SDS011;43707;50.184;18.966;2022-08-30T10:55:15;3.30;;;3.00;;
57889;SDS011;43707;50.184;18.966;2022-08-30T10:57:45;2.80;;;2.40;;
57889;SDS011;43707;50.184;18.966;2022-08-30T11:00:13;2.60;;;2.40;;
57889;SDS011;43707;50.184;18.966;2022-08-30T11:13:29;4.60;;;4.10;;
57889;SDS011;43707;50.184;18.966;2022-08-30T11:16:06;5.00;;;3.70;;
57889;SDS011;43707;50.184;18.966;2022-08-30T11:18:54;5.30;;;3.50;;
57889;SDS011;43707;50.184;18.966;2022-08-30T11:26:48;3.00;;;2.60;;
57889;SDS011;43707;50.184;18.966;2022-08-30T11:29:29;3.40;;;2.20;;
57889;SDS011;43707;50.184;18.966;2022-08-30T11:32:17;2.80;;;2.40;;
57889;SDS011;43707;50.184;18.966;2022-08-30T11:42:50;3.50;;;2.40;;
57889;SDS011;43707;50.184;18.966;2022-08-30T11:47:58;1.60;;;1.50;;
57889;SDS011;43707;50.184;18.966;2022-08-30T12:01:17;1.50;;;1.40;;
57889;SDS011;43707;50.184;18.966;2022-08-30T12:03:44;1.90;;;0.80;;
57889;SDS011;43707;50.184;18.966;2022-08-30T12:06:10;1.00;;;0.90;;
57889;SDS011;43707;50.184;18.966;2022-08-30T12:08:43;1.60;;;1.10;;
57889;SDS011;43707;50.184;18.966;2022-08-30T12:18:37;3.20;;;1.50;;
57889;SDS011;43707;50.184;18.966;2022-08-30T12:21:11;2.60;;;1.60;;
57889;SDS011;43707;50.184;18.966;2022-08-30T12:24:20;1.50;;;1.40;;
57889;SDS011;43707;50.184;18.966;2022-08-30T12:26:50;3.40;;;1.80;;
57889;SDS011;43707;50.184;18.966;2022-08-30T12:31:53;1.70;;;1.10;;
57889;SDS011;43707;50.184;18.966;2022-08-30T12:36:57;1.90;;;1.50;;
57889;SDS011;43707;50.184;18.966;2022-08-30T12:41:54;3.40;;;1.60;;
57889;SDS011;43707;50.184;18.966;2022-08-30T12:44:24;2.80;;;2.20;;
57889;SDS011;43707;50.184;18.966;2022-08-30T12:46:53;3.90;;;2.10;;
57889;SDS011;43707;50.184;18.966;2022-08-30T12:49:21;3.10;;;2.10;;
57889;SDS011;43707;50.184;18.966;2022-08-30T12:51:49;2.70;;;2.20;;
57889;SDS011;43707;50.184;18.966;2022-08-30T12:57:03;3.40;;;2.40;;
57889;SDS011;43707;50.184;18.966;2022-08-30T12:59:46;2.70;;;2.10;;
57889;SDS011;43707;50.184;18.966;2022-08-30T13:02:20;4.70;;;2.50;;
57889;SDS011;43707;50.184;18.966;2022-08-30T13:04:50;3.20;;;2.20;;
57889;SDS011;43707;50.184;18.966;2022-08-30T13:07:28;2.80;;;1.80;;
57889;SDS011;43707;50.184;18.966;2022-08-30T13:10:12;2.00;;;1.80;;
57889;SDS011;43707;50.184;18.966;2022-08-30T13:12:56;2.50;;;2.00;;
57889;SDS011;43707;50.184;18.966;2022-08-30T13:15:27;2.10;;;1.90;;
57889;SDS011;43707;50.184;18.966;2022-08-30T13:20:48;1.90;;;1.80;;
57889;SDS011;43707;50.184;18.966;2022-08-30T13:23:21;2.20;;;2.00;;
57889;SDS011;43707;50.184;18.966;2022-08-30T13:25:47;4.30;;;2.20;;
57889;SDS011;43707;50.184;18.966;2022-08-30T13:28:13;2.10;;;1.90;;
57889;SDS011;43707;50.184;18.966;2022-08-30T13:30:38;2.40;;;2.00;;
57889;SDS011;43707;50.184;18.966;2022-08-30T13:33:04;6.20;;;2.10;;
57889;SDS011;43707;50.184;18.966;2022-08-30T13:35:30;2.20;;;1.90;;
57889;SDS011;43707;50.184;18.966;2022-08-30T13:37:56;4.60;;;2.10;;
57889;SDS011;43707;50.184;18.966;2022-08-30T13:40:22;2.20;;;2.00;;
57889;SDS011;43707;50.184;18.966;2022-08-30T13:42:48;2.60;;;2.20;;
57889;SDS011;43707;50.184;18.966;2022-08-30T13:45:14;2.10;;;1.90;;
57889;SDS011;43707;50.184;18.966;2022-08-30T13:47:41;6.20;;;2.30;;
57889;SDS011;43707;50.184;18.966;2022-08-30T13:50:08;3.60;;;2.20;;
57889;SDS011;43707;50.184;18.966;2022-08-30T13:52:33;3.20;;;1.70;;
57889;SDS011;43707;50.184;18.966;2022-08-30T13:54:59;1.90;;;1.20;;
57889;SDS011;43707;50.184;18.966;2022-08-30T13:57:26;1.20;;;1.10;;
57889;SDS011;43707;50.184;18.966;2022-08-30T13:59:53;2.60;;;1.00;;
57889;SDS011;43707;50.184;18.966;2022-08-30T14:02:18;1.80;;;1.10;;
57889;SDS011;43707;50.184;18.966;2022-08-30T14:04:44;2.90;;;1.20;;
57889;SDS011;43707;50.184;18.966;2022-08-30T14:07:09;1.70;;;1.30;;
57889;SDS011;43707;50.184;18.966;2022-08-30T14:09:34;1.80;;;1.20;;
57889;SDS011;43707;50.184;18.966;2022-08-30T14:12:00;2.20;;;1.50;;
57889;SDS011;43707;50.184;18.966;2022-08-30T14:14:26;1.40;;;1.30;;
57889;SDS011;43707;50.184;18.966;2022-08-30T14:16:51;1.20;;;0.90;;
57889;SDS011;43707;50.184;18.966;2022-08-30T14:19:17;3.60;;;1.50;;
57889;SDS011;43707;50.184;18.966;2022-08-30T14:21:43;2.10;;;1.20;;
57889;SDS011;43707;50.184;18.966;2022-08-30T14:24:09;1.40;;;1.30;;
57889;SDS011;43707;50.184;18.966;2022-08-30T14:26:39;2.00;;;1.10;;
57889;SDS011;43707;50.184;18.966;2022-08-30T14:29:09;3.10;;;1.80;;
57889;SDS011;43707;50.184;18.966;2022-08-30T14:31:36;1.30;;;1.00;;
57889;SDS011;43707;50.184;18.966;2022-08-30T14:34:02;3.40;;;1.30;;
57889;SDS011;43707;50.184;18.966;2022-08-30T14:36:29;4.80;;;1.30;;
57889;SDS011;43707;50.184;18.966;2022-08-30T14:38:55;1.90;;;1.60;;
57889;SDS011;43707;50.184;18.966;2022-08-30T14:41:22;2.40;;;1.80;;
57889;SDS011;43707;50.184;18.966;2022-08-30T14:43:49;1.50;;;1.40;;
57889;SDS011;43707;50.184;18.966;2022-08-30T14:46:15;3.40;;;1.70;;
57889;SDS011;43707;50.184;18.966;2022-08-30T14:48:40;1.50;;;1.30;;
57889;SDS011;43707;50.184;18.966;2022-08-30T14:51:13;1.80;;;1.20;;
57889;SDS011;43707;50.184;18.966;2022-08-30T14:53:40;4.70;;;1.70;;
57889;SDS011;43707;50.184;18.966;2022-08-30T14:56:09;1.30;;;1.00;;
57889;SDS011;43707;50.184;18.966;2022-08-30T14:58:37;1.30;;;1.10;;
57889;SDS011;43707;50.184;18.966;2022-08-30T15:01:06;1.10;;;1.00;;
57889;SDS011;43707;50.184;18.966;2022-08-30T15:03:33;1.50;;;1.10;;
57889;SDS011;43707;50.184;18.966;2022-08-30T15:05:59;2.10;;;1.20;;
57889;SDS011;43707;50.184;18.966;2022-08-30T15:08:24;1.90;;;1.30;;
57889;SDS011;43707;50.184;18.966;2022-08-30T15:10:50;1.60;;;1.40;;
57889;SDS011;43707;50.184;18.966;2022-08-30T15:13:15;2.40;;;1.50;;
57889;SDS011;43707;50.184;18.966;2022-08-30T15:15:41;1.70;;;1.60;;
57889;SDS011;43707;50.184;18.966;2022-08-30T15:18:07;1.60;;;1.10;;
57889;SDS011;43707;50.184;18.966;2022-08-30T15:20:33;1.60;;;1.20;;
57889;SDS011;43707;50.184;18.966;2022-08-30T15:22:58;1.80;;;1.60;;
57889;SDS011;43707;50.184;18.966;2022-08-30T15:25:24;1.90;;;1.60;;
57889;SDS011;43707;50.184;18.966;2022-08-30T15:27:49;1.60;;;1.10;;
57889;SDS011;43707;50.184;18.966;2022-08-30T15:30:15;3.30;;;1.60;;
57889;SDS011;43707;50.184;18.966;2022-08-30T15:32:40;1.70;;;1.60;;
57889;SDS011;43707;50.184;18.966;2022-08-30T15:35:06;2.40;;;1.30;;
57889;SDS011;43707;50.184;18.966;2022-08-30T15:37:32;1.60;;;1.50;;
57889;SDS011;43707;50.184;18.966;2022-08-30T15:39:57;2.00;;;1.20;;
57889;SDS011;43707;50.184;18.966;2022-08-30T15:42:23;1.50;;;1.40;;
57889;SDS011;43707;50.184;18.966;2022-08-30T15:44:53;1.80;;;1.50;;
57889;SDS011;43707;50.184;18.966;2022-08-30T15:47:20;1.70;;;1.30;;
57889;SDS011;43707;50.184;18.966;2022-08-30T15:49:56;3.20;;;1.50;;
57889;SDS011;43707;50.184;18.966;2022-08-30T15:52:23;1.70;;;1.20;;
57889;SDS011;43707;50.184;18.966;2022-08-30T15:54:49;1.70;;;1.30;;
57889;SDS011;43707;50.184;18.966;2022-08-30T15:57:15;1.30;;;1.10;;
57889;SDS011;43707;50.184;18.966;2022-08-30T15:59:40;3.30;;;1.80;;
57889;SDS011;43707;50.184;18.966;2022-08-30T16:02:06;2.10;;;1.00;;
57889;SDS011;43707;50.184;18.966;2022-08-30T16:04:31;2.60;;;1.20;;
57889;SDS011;43707;50.184;18.966;2022-08-30T16:06:57;1.60;;;1.40;;
57889;SDS011;43707;50.184;18.966;2022-08-30T16:09:23;5.30;;;1.90;;
57889;SDS011;43707;50.184;18.966;2022-08-30T16:11:49;1.30;;;1.20;;
57889;SDS011;43707;50.184;18.966;2022-08-30T16:14:14;1.80;;;1.30;;
57889;SDS011;43707;50.184;18.966;2022-08-30T16:16:40;1.50;;;1.40;;
57889;SDS011;43707;50.184;18.966;2022-08-30T16:19:05;2.00;;;1.50;;
57889;SDS011;43707;50.184;18.966;2022-08-30T16:21:32;1.90;;;1.40;;
57889;SDS011;43707;50.184;18.966;2022-08-30T16:24:01;1.40;;;1.30;;
57889;SDS011;43707;50.184;18.966;2022-08-30T16:26:28;2.80;;;1.10;;
57889;SDS011;43707;50.184;18.966;2022-08-30T16:28:57;1.90;;;1.30;;
57889;SDS011;43707;50.184;18.966;2022-08-30T16:31:24;1.90;;;1.30;;